WZZ59 LBSF-EHEH
Flight info
| Callsign | WZZ59 |
|---|---|
| Flight time | 2h 24m |
| Altitude | 36000 |
| Route | OGOTA T228 UTEKA DCT DONIV DCT BABIT DCT SOGMO DCT SASAL DCT BARUG DCT DEXIT DCT RUDNO DCT MAPOX DCT BIGGE DCT DOMEG DCT ROTEK |
| Aircraft | A321/M-SDE3FGHIRWY/LB1 |
Departure
| Time | 2026-05-04 08:08 |
|---|---|
| Airport | Sofia Airport (LBSF) |
Arrival
| Time | 2026-05-04 10:32 |
|---|---|
| Airport | Eindhoven Airport (EHEH) |
| Time | Latitude | Longitude | Altitude | Speed | Heading |
|---|---|---|---|---|---|
| 2026-05-04 07:55 | 42.69069 | 23.40367 | 1749 ft | 0 kts | 196° |
| 2026-05-04 08:00 | 42.69067 | 23.40366 | 1749 ft | 1 kts | 196° |
| 2026-05-04 08:00 | 42.69040 | 23.40354 | 1749 ft | 7 kts | 204° |
| 2026-05-04 08:02 | 42.69529 | 23.40563 | 1747 ft | 12 kts | 95° |
| 2026-05-04 08:02 | 42.69521 | 23.40700 | 1742 ft | 18 kts | 95° |
| 2026-05-04 08:02 | 42.69508 | 23.40913 | 1743 ft | 26 kts | 94° |
| 2026-05-04 08:03 | 42.69493 | 23.41165 | 1744 ft | 27 kts | 95° |
| 2026-05-04 08:03 | 42.69478 | 23.41419 | 1747 ft | 27 kts | 94° |
| 2026-05-04 08:03 | 42.69462 | 23.41677 | 1750 ft | 27 kts | 95° |
| 2026-05-04 08:03 | 42.69447 | 23.41933 | 1747 ft | 28 kts | 95° |
| 2026-05-04 08:04 | 42.69431 | 23.42194 | 1751 ft | 28 kts | 95° |
| 2026-05-04 08:04 | 42.69416 | 23.42455 | 1751 ft | 28 kts | 95° |
| 2026-05-04 08:04 | 42.69400 | 23.42719 | 1752 ft | 28 kts | 94° |
| 2026-05-04 08:04 | 42.69384 | 23.42984 | 1749 ft | 28 kts | 95° |
| 2026-05-04 08:05 | 42.69368 | 23.43251 | 1752 ft | 28 kts | 95° |
| 2026-05-04 08:05 | 42.69352 | 23.43517 | 1752 ft | 26 kts | 95° |
| 2026-05-04 08:05 | 42.69340 | 23.43721 | 1758 ft | 21 kts | 95° |
| 2026-05-04 08:05 | 42.69331 | 23.43872 | 1766 ft | 13 kts | 94° |
| 2026-05-04 08:06 | 42.69388 | 23.43945 | 1772 ft | 13 kts | 5° |
| 2026-05-04 08:06 | 42.69475 | 23.43955 | 1772 ft | 8 kts | 4° |
| 2026-05-04 08:06 | 42.69516 | 23.43936 | 1768 ft | 6 kts | 292° |
| 2026-05-04 08:06 | 42.69527 | 23.43762 | 1741 ft | 48 kts | 274° |
| 2026-05-04 08:08 | 42.73276 | 23.34913 | 3952 ft | 239 kts | 353° |
| 2026-05-04 08:08 | 42.75000 | 23.34653 | 4454 ft | 255 kts | 353° |
| 2026-05-04 08:10 | 42.88686 | 23.28189 | 10337 ft | 301 kts | 333° |
| 2026-05-04 08:11 | 42.90530 | 23.26627 | 10503 ft | 323 kts | 333° |
| 2026-05-04 08:11 | 42.94440 | 23.23290 | 11688 ft | 336 kts | 332° |
| 2026-05-04 08:11 | 42.96407 | 23.21609 | 12371 ft | 339 kts | 332° |
| 2026-05-04 08:12 | 42.98415 | 23.19894 | 13097 ft | 342 kts | 332° |
| 2026-05-04 08:12 | 43.00438 | 23.18162 | 13785 ft | 345 kts | 332° |
| 2026-05-04 08:12 | 43.02479 | 23.16413 | 14399 ft | 348 kts | 332° |
| 2026-05-04 08:12 | 43.04542 | 23.14648 | 14973 ft | 352 kts | 332° |
| 2026-05-04 08:13 | 43.06631 | 23.12864 | 15570 ft | 356 kts | 331° |
| 2026-05-04 08:13 | 43.08740 | 23.11061 | 16158 ft | 358 kts | 332° |
| 2026-05-04 08:13 | 43.10855 | 23.09251 | 16800 ft | 360 kts | 332° |
| 2026-05-04 08:13 | 43.12985 | 23.07424 | 17417 ft | 363 kts | 332° |
| 2026-05-04 08:14 | 43.15106 | 23.05600 | 17994 ft | 366 kts | 332° |
| 2026-05-04 08:14 | 43.16485 | 23.04414 | 18358 ft | 368 kts | 332° |
| 2026-05-04 08:14 | 43.16583 | 23.04330 | 18389 ft | 368 kts | 332° |
| 2026-05-04 08:16 | 43.31006 | 22.91899 | 21682 ft | 389 kts | 333° |
| 2026-05-04 08:16 | 43.33284 | 22.89922 | 22444 ft | 386 kts | 333° |
| 2026-05-04 08:16 | 43.35553 | 22.87955 | 23035 ft | 387 kts | 333° |
| 2026-05-04 08:17 | 43.37834 | 22.85984 | 23568 ft | 389 kts | 333° |
| 2026-05-04 08:17 | 43.40134 | 22.83999 | 24006 ft | 391 kts | 333° |
| 2026-05-04 08:17 | 43.42440 | 22.82002 | 24407 ft | 393 kts | 333° |
| 2026-05-04 08:17 | 43.44760 | 22.79985 | 24815 ft | 396 kts | 332° |
| 2026-05-04 08:19 | 43.61340 | 22.65524 | 27695 ft | 406 kts | 333° |
| 2026-05-04 08:19 | 43.63735 | 22.63433 | 28064 ft | 408 kts | 333° |
| 2026-05-04 08:20 | 43.66138 | 22.61332 | 28441 ft | 410 kts | 333° |
| 2026-05-04 08:20 | 43.68554 | 22.59216 | 28815 ft | 412 kts | 333° |
| 2026-05-04 08:20 | 43.70951 | 22.57111 | 29092 ft | 416 kts | 333° |
| 2026-05-04 08:20 | 43.73402 | 22.54955 | 29407 ft | 419 kts | 333° |
| 2026-05-04 08:21 | 43.75866 | 22.52786 | 29737 ft | 421 kts | 333° |
| 2026-05-04 08:21 | 43.78338 | 22.50610 | 30057 ft | 422 kts | 333° |
| 2026-05-04 08:21 | 43.80817 | 22.48422 | 30397 ft | 423 kts | 332° |
| 2026-05-04 08:21 | 43.83301 | 22.46227 | 30691 ft | 425 kts | 332° |
| 2026-05-04 08:22 | 43.85799 | 22.44020 | 30974 ft | 427 kts | 332° |
| 2026-05-04 08:22 | 43.88303 | 22.41805 | 31273 ft | 428 kts | 332° |
| 2026-05-04 08:24 | 44.03452 | 22.21698 | 33903 ft | 431 kts | 319° |
| 2026-05-04 08:24 | 44.05533 | 22.18700 | 34244 ft | 430 kts | 319° |
| 2026-05-04 08:24 | 44.07582 | 22.15748 | 34547 ft | 430 kts | 318° |
| 2026-05-04 08:24 | 44.09658 | 22.12758 | 34834 ft | 430 kts | 318° |
| 2026-05-04 08:25 | 44.11734 | 22.09764 | 35119 ft | 429 kts | 318° |
| 2026-05-04 08:25 | 44.13806 | 22.06773 | 35399 ft | 429 kts | 318° |
| 2026-05-04 08:25 | 44.15877 | 22.03774 | 35636 ft | 429 kts | 318° |
| 2026-05-04 08:25 | 44.17942 | 22.00775 | 35918 ft | 429 kts | 317° |
| 2026-05-04 08:26 | 44.20011 | 21.97770 | 36116 ft | 430 kts | 317° |
| 2026-05-04 08:27 | 44.34382 | 21.76834 | 36170 ft | 426 kts | 317° |
| 2026-05-04 08:28 | 44.38476 | 21.70839 | 36179 ft | 426 kts | 317° |
| 2026-05-04 08:28 | 44.42537 | 21.64885 | 36183 ft | 426 kts | 317° |
| 2026-05-04 08:29 | 44.46628 | 21.58879 | 36190 ft | 427 kts | 317° |
| 2026-05-04 08:31 | 44.62936 | 21.34766 | 36208 ft | 426 kts | 317° |
| 2026-05-04 08:33 | 44.78716 | 21.09997 | 36209 ft | 427 kts | 311° |
| 2026-05-04 08:35 | 44.93137 | 20.83545 | 36203 ft | 425 kts | 311° |
| 2026-05-04 08:35 | 44.96724 | 20.76914 | 36200 ft | 425 kts | 311° |
| 2026-05-04 08:37 | 45.09215 | 20.53720 | 36206 ft | 424 kts | 311° |
| 2026-05-04 08:38 | 45.12786 | 20.47072 | 36204 ft | 424 kts | 311° |
| 2026-05-04 08:38 | 45.16349 | 20.40415 | 36176 ft | 424 kts | 310° |
| 2026-05-04 08:40 | 45.30538 | 20.13744 | 36195 ft | 424 kts | 310° |
| 2026-05-04 08:41 | 45.34080 | 20.07048 | 36178 ft | 424 kts | 309° |
| 2026-05-04 08:41 | 45.37595 | 20.00393 | 36183 ft | 424 kts | 309° |
| 2026-05-04 08:42 | 45.41131 | 19.93691 | 36190 ft | 424 kts | 309° |
| 2026-05-04 08:42 | 45.44654 | 19.86961 | 36187 ft | 424 kts | 309° |
| 2026-05-04 08:43 | 45.48171 | 19.80221 | 36173 ft | 424 kts | 309° |
| 2026-05-04 08:43 | 45.51668 | 19.73526 | 36179 ft | 424 kts | 309° |
| 2026-05-04 08:44 | 45.55192 | 19.66786 | 36183 ft | 424 kts | 309° |
| 2026-05-04 08:46 | 45.69190 | 19.39786 | 36180 ft | 423 kts | 309° |
| 2026-05-04 08:46 | 45.72684 | 19.33006 | 36187 ft | 423 kts | 309° |
| 2026-05-04 08:47 | 45.76177 | 19.26214 | 36176 ft | 424 kts | 309° |
| 2026-05-04 08:47 | 45.79645 | 19.19450 | 36165 ft | 424 kts | 308° |
| 2026-05-04 08:48 | 45.83128 | 19.12630 | 36174 ft | 424 kts | 308° |
| 2026-05-04 08:48 | 45.86613 | 19.05802 | 36175 ft | 424 kts | 308° |
| 2026-05-04 08:49 | 45.90090 | 18.98963 | 36181 ft | 424 kts | 308° |
| 2026-05-04 08:50 | 46.02130 | 18.76760 | 36177 ft | 423 kts | 310° |
| 2026-05-04 08:51 | 46.05824 | 18.70152 | 36179 ft | 424 kts | 310° |
| 2026-05-04 08:51 | 46.10086 | 18.62421 | 36178 ft | 424 kts | 310° |
| 2026-05-04 08:52 | 46.13125 | 18.56877 | 36166 ft | 424 kts | 309° |
| 2026-05-04 08:52 | 46.16783 | 18.50200 | 36172 ft | 424 kts | 309° |
| 2026-05-04 08:54 | 46.31382 | 18.23516 | 36185 ft | 424 kts | 309° |
| 2026-05-04 08:55 | 46.35018 | 18.16810 | 36175 ft | 423 kts | 309° |
| 2026-05-04 08:55 | 46.38653 | 18.10098 | 36172 ft | 423 kts | 309° |
| 2026-05-04 09:01 | 46.77196 | 17.39950 | 36156 ft | 424 kts | 309° |
| 2026-05-04 09:01 | 46.80938 | 17.33289 | 36151 ft | 424 kts | 309° |
| 2026-05-04 09:02 | 46.84676 | 17.26621 | 36152 ft | 424 kts | 309° |
| 2026-05-04 09:02 | 46.88388 | 17.19997 | 36150 ft | 424 kts | 309° |
| 2026-05-04 09:03 | 46.92128 | 17.13321 | 36151 ft | 424 kts | 309° |
| 2026-05-04 09:03 | 46.95858 | 17.06631 | 36146 ft | 424 kts | 309° |
| 2026-05-04 09:04 | 46.99582 | 16.99934 | 36133 ft | 424 kts | 309° |
| 2026-05-04 09:04 | 47.03279 | 16.93274 | 36125 ft | 424 kts | 309° |
| 2026-05-04 09:05 | 47.07000 | 16.86555 | 36127 ft | 424 kts | 309° |
| 2026-05-04 09:05 | 47.10718 | 16.79828 | 36117 ft | 424 kts | 309° |
| 2026-05-04 09:06 | 47.14426 | 16.73094 | 36124 ft | 424 kts | 308° |
| 2026-05-04 09:08 | 47.29203 | 16.46120 | 36120 ft | 423 kts | 308° |
| 2026-05-04 09:08 | 47.32897 | 16.39457 | 36111 ft | 422 kts | 309° |
| 2026-05-04 09:09 | 47.36639 | 16.32771 | 36112 ft | 423 kts | 309° |
| 2026-05-04 09:09 | 47.40371 | 16.26079 | 36101 ft | 422 kts | 309° |
| 2026-05-04 09:10 | 47.44089 | 16.19371 | 36098 ft | 421 kts | 308° |
| 2026-05-04 09:10 | 47.47764 | 16.12711 | 36103 ft | 421 kts | 308° |
| 2026-05-04 09:11 | 47.51455 | 16.05993 | 36096 ft | 421 kts | 308° |
| 2026-05-04 09:11 | 47.55147 | 15.99267 | 36070 ft | 422 kts | 308° |
| 2026-05-04 09:12 | 47.58848 | 15.92520 | 36072 ft | 423 kts | 308° |
| 2026-05-04 09:14 | 47.73651 | 15.65336 | 36082 ft | 424 kts | 308° |
| 2026-05-04 09:14 | 47.77349 | 15.58514 | 36077 ft | 424 kts | 307° |
| 2026-05-04 09:15 | 47.81032 | 15.51687 | 36076 ft | 423 kts | 307° |
| 2026-05-04 09:15 | 47.84680 | 15.44896 | 36080 ft | 423 kts | 307° |
| 2026-05-04 09:17 | 48.01239 | 15.14181 | 36062 ft | 423 kts | 307° |
| 2026-05-04 09:18 | 48.04923 | 15.07331 | 36064 ft | 423 kts | 307° |
| 2026-05-04 09:18 | 48.08598 | 15.00460 | 36064 ft | 423 kts | 307° |
| 2026-05-04 09:19 | 48.12249 | 14.93616 | 36066 ft | 424 kts | 306° |
| 2026-05-04 09:19 | 48.15923 | 14.86715 | 36064 ft | 424 kts | 306° |
| 2026-05-04 09:20 | 48.19602 | 14.79813 | 36067 ft | 424 kts | 306° |
| 2026-05-04 09:20 | 48.23275 | 14.72900 | 36064 ft | 424 kts | 306° |
| 2026-05-04 09:21 | 48.26943 | 14.65968 | 36073 ft | 424 kts | 306° |
| 2026-05-04 09:21 | 48.30579 | 14.59068 | 36074 ft | 424 kts | 306° |
| 2026-05-04 09:22 | 48.34234 | 14.52124 | 36070 ft | 424 kts | 306° |
| 2026-05-04 09:22 | 48.37885 | 14.45170 | 36071 ft | 423 kts | 306° |
| 2026-05-04 09:23 | 48.41530 | 14.38216 | 36079 ft | 423 kts | 306° |
| 2026-05-04 09:23 | 48.45170 | 14.31245 | 36078 ft | 423 kts | 305° |
| 2026-05-04 09:25 | 48.59647 | 14.03354 | 36062 ft | 422 kts | 305° |
| 2026-05-04 09:26 | 48.63232 | 13.96393 | 36064 ft | 422 kts | 305° |
| 2026-05-04 09:26 | 48.66837 | 13.89379 | 36063 ft | 423 kts | 305° |
| 2026-05-04 09:27 | 48.70442 | 13.82347 | 36072 ft | 423 kts | 305° |
| 2026-05-04 09:27 | 48.74041 | 13.75302 | 36070 ft | 423 kts | 304° |
| 2026-05-04 09:28 | 48.77610 | 13.68303 | 36067 ft | 422 kts | 304° |
| 2026-05-04 09:28 | 48.81170 | 13.61206 | 36058 ft | 423 kts | 304° |
| 2026-05-04 09:29 | 48.84710 | 13.54083 | 36053 ft | 423 kts | 304° |
| 2026-05-04 09:29 | 48.88259 | 13.46943 | 36051 ft | 424 kts | 304° |
| 2026-05-04 09:30 | 48.91782 | 13.39841 | 36050 ft | 424 kts | 304° |
| 2026-05-04 09:30 | 48.95329 | 13.32673 | 36052 ft | 424 kts | 304° |
| 2026-05-04 09:31 | 48.98873 | 13.25503 | 36062 ft | 424 kts | 304° |
| 2026-05-04 09:31 | 49.02419 | 13.18313 | 36052 ft | 425 kts | 304° |
| 2026-05-04 09:32 | 49.05937 | 13.11151 | 36050 ft | 425 kts | 304° |
| 2026-05-04 09:34 | 49.20067 | 12.82169 | 36057 ft | 426 kts | 303° |
| 2026-05-04 09:34 | 49.23601 | 12.74878 | 36058 ft | 427 kts | 303° |
| 2026-05-04 09:35 | 49.27131 | 12.67572 | 36059 ft | 427 kts | 303° |
| 2026-05-04 09:35 | 49.30646 | 12.60252 | 36063 ft | 427 kts | 303° |
| 2026-05-04 09:37 | 49.45243 | 12.31568 | 36056 ft | 427 kts | 305° |
| 2026-05-04 09:38 | 49.48912 | 12.24370 | 36055 ft | 427 kts | 304° |
| 2026-05-04 09:38 | 49.52546 | 12.17213 | 36097 ft | 427 kts | 304° |
| 2026-05-04 09:39 | 49.56207 | 12.10023 | 36121 ft | 427 kts | 304° |
| 2026-05-04 09:39 | 49.59867 | 12.02829 | 36127 ft | 427 kts | 304° |
| 2026-05-04 09:40 | 49.63523 | 11.95620 | 36132 ft | 427 kts | 304° |
| 2026-05-04 09:40 | 49.67176 | 11.88393 | 36129 ft | 427 kts | 304° |
| 2026-05-04 09:42 | 49.81704 | 11.59435 | 36081 ft | 426 kts | 304° |
| 2026-05-04 09:43 | 49.83107 | 11.56628 | 36076 ft | 426 kts | 304° |
| 2026-05-04 09:43 | 49.84445 | 11.53948 | 36067 ft | 426 kts | 304° |
| 2026-05-04 09:44 | 49.88064 | 11.46673 | 36058 ft | 426 kts | 304° |
| 2026-05-04 09:46 | 50.02447 | 11.17540 | 36056 ft | 425 kts | 303° |
| 2026-05-04 09:46 | 50.06040 | 11.10225 | 36067 ft | 426 kts | 303° |
| 2026-05-04 09:47 | 50.09602 | 11.02947 | 36071 ft | 426 kts | 303° |
| 2026-05-04 09:49 | 50.23843 | 10.73608 | 36058 ft | 424 kts | 302° |
| 2026-05-04 09:51 | 50.36230 | 10.47850 | 36054 ft | 422 kts | 302° |
| 2026-05-04 09:51 | 50.39728 | 10.40535 | 36051 ft | 422 kts | 302° |
| 2026-05-04 09:52 | 50.43238 | 10.33160 | 36058 ft | 422 kts | 302° |
| 2026-05-04 09:52 | 50.46745 | 10.25779 | 36056 ft | 422 kts | 302° |
| 2026-05-04 09:53 | 50.50247 | 10.18390 | 36063 ft | 421 kts | 302° |
| 2026-05-04 09:53 | 50.53740 | 10.10997 | 36054 ft | 422 kts | 302° |
| 2026-05-04 09:54 | 50.57210 | 10.03632 | 36047 ft | 422 kts | 301° |
| 2026-05-04 09:54 | 50.60695 | 9.96210 | 36045 ft | 422 kts | 301° |
| 2026-05-04 09:55 | 50.64178 | 9.88764 | 36046 ft | 422 kts | 301° |
| 2026-05-04 09:55 | 50.67650 | 9.81314 | 36064 ft | 422 kts | 301° |
| 2026-05-04 09:56 | 50.71106 | 9.73902 | 36052 ft | 422 kts | 301° |
| 2026-05-04 09:56 | 50.74579 | 9.66422 | 36049 ft | 422 kts | 301° |
| 2026-05-04 09:57 | 50.78051 | 9.58938 | 36042 ft | 422 kts | 301° |
| 2026-05-04 09:57 | 50.81511 | 9.51438 | 36042 ft | 422 kts | 301° |
| 2026-05-04 09:58 | 50.84945 | 9.43971 | 36043 ft | 422 kts | 301° |
| 2026-05-04 09:58 | 50.88398 | 9.36448 | 36054 ft | 423 kts | 301° |
| 2026-05-04 10:00 | 51.02161 | 9.06233 | 36052 ft | 423 kts | 300° |
| 2026-05-04 10:04 | 51.27166 | 8.54108 | 36052 ft | 425 kts | 303° |
| 2026-05-04 10:04 | 51.30857 | 8.46717 | 35439 ft | 427 kts | 303° |
| 2026-05-04 10:04 | 51.32678 | 8.43053 | 34922 ft | 426 kts | 302° |
| 2026-05-04 10:05 | 51.34482 | 8.39314 | 34456 ft | 422 kts | 301° |
| 2026-05-04 10:05 | 51.36224 | 8.35564 | 33991 ft | 419 kts | 301° |
| 2026-05-04 10:05 | 51.37931 | 8.31806 | 33473 ft | 415 kts | 300° |
| 2026-05-04 10:05 | 51.39609 | 8.28078 | 33033 ft | 411 kts | 300° |
| 2026-05-04 10:06 | 51.41271 | 8.24393 | 32571 ft | 407 kts | 300° |
| 2026-05-04 10:06 | 51.42924 | 8.20744 | 32111 ft | 403 kts | 300° |
| 2026-05-04 10:06 | 51.44569 | 8.17131 | 31675 ft | 398 kts | 300° |
| 2026-05-04 10:08 | 51.54086 | 7.96245 | 29054 ft | 375 kts | 300° |
| 2026-05-04 10:08 | 51.55614 | 7.92864 | 28634 ft | 371 kts | 300° |
| 2026-05-04 10:08 | 51.57123 | 7.89522 | 28249 ft | 368 kts | 300° |
| 2026-05-04 10:08 | 51.58618 | 7.86215 | 27853 ft | 365 kts | 300° |
| 2026-05-04 10:09 | 51.60084 | 7.82971 | 27484 ft | 362 kts | 300° |
| 2026-05-04 10:09 | 51.61556 | 7.79717 | 27106 ft | 358 kts | 300° |
| 2026-05-04 10:09 | 51.63011 | 7.76486 | 26736 ft | 355 kts | 300° |
| 2026-05-04 10:09 | 51.64450 | 7.73277 | 26386 ft | 352 kts | 300° |
| 2026-05-04 10:10 | 51.65877 | 7.70089 | 26019 ft | 350 kts | 300° |
| 2026-05-04 10:10 | 51.67291 | 7.66930 | 25648 ft | 347 kts | 299° |
| 2026-05-04 10:10 | 51.68687 | 7.63784 | 25276 ft | 342 kts | 296° |
| 2026-05-04 10:10 | 51.69761 | 7.60506 | 24923 ft | 331 kts | 285° |
| 2026-05-04 10:11 | 51.70417 | 7.57010 | 24556 ft | 322 kts | 276° |
| 2026-05-04 10:11 | 51.70662 | 7.53466 | 24199 ft | 314 kts | 266° |
| 2026-05-04 10:11 | 51.70555 | 7.49987 | 23850 ft | 309 kts | 261° |
| 2026-05-04 10:11 | 51.70387 | 7.46546 | 23470 ft | 307 kts | 261° |
| 2026-05-04 10:12 | 51.70224 | 7.43123 | 23083 ft | 305 kts | 262° |
| 2026-05-04 10:12 | 51.70064 | 7.39714 | 22724 ft | 305 kts | 262° |
| 2026-05-04 10:12 | 51.69903 | 7.36314 | 22360 ft | 304 kts | 262° |
| 2026-05-04 10:12 | 51.69744 | 7.32971 | 21994 ft | 303 kts | 262° |
| 2026-05-04 10:13 | 51.69580 | 7.29596 | 21644 ft | 302 kts | 262° |
| 2026-05-04 10:13 | 51.69413 | 7.26228 | 21300 ft | 301 kts | 262° |
| 2026-05-04 10:13 | 51.69246 | 7.22866 | 20915 ft | 301 kts | 262° |
| 2026-05-04 10:13 | 51.69078 | 7.19510 | 20555 ft | 300 kts | 262° |
| 2026-05-04 10:14 | 51.68908 | 7.16165 | 20201 ft | 299 kts | 262° |
| 2026-05-04 10:14 | 51.68737 | 7.12827 | 19840 ft | 299 kts | 262° |
| 2026-05-04 10:16 | 51.67554 | 6.89735 | 17298 ft | 292 kts | 263° |
| 2026-05-04 10:16 | 51.67382 | 6.86483 | 16941 ft | 290 kts | 263° |
| 2026-05-04 10:16 | 51.67211 | 6.83252 | 16587 ft | 288 kts | 263° |
| 2026-05-04 10:16 | 51.67041 | 6.80043 | 16237 ft | 287 kts | 263° |
| 2026-05-04 10:17 | 51.66871 | 6.76859 | 15901 ft | 285 kts | 263° |
| 2026-05-04 10:17 | 51.66703 | 6.73737 | 15552 ft | 283 kts | 263° |
| 2026-05-04 10:19 | 51.65517 | 6.52143 | 13160 ft | 271 kts | 263° |
| 2026-05-04 10:19 | 51.65352 | 6.49169 | 12836 ft | 270 kts | 263° |
| 2026-05-04 10:19 | 51.65184 | 6.46171 | 12504 ft | 269 kts | 263° |
| 2026-05-04 10:19 | 51.65015 | 6.43179 | 12193 ft | 268 kts | 263° |
| 2026-05-04 10:20 | 51.64847 | 6.40200 | 11865 ft | 267 kts | 263° |
| 2026-05-04 10:20 | 51.64678 | 6.37214 | 11534 ft | 268 kts | 263° |
| 2026-05-04 10:20 | 51.64508 | 6.34230 | 11205 ft | 267 kts | 264° |
| 2026-05-04 10:20 | 51.64340 | 6.31267 | 10885 ft | 266 kts | 264° |
| 2026-05-04 10:21 | 51.64172 | 6.28312 | 10558 ft | 264 kts | 264° |
| 2026-05-04 10:21 | 51.64001 | 6.25377 | 10228 ft | 263 kts | 264° |
| 2026-05-04 10:21 | 51.63832 | 6.22487 | 9907 ft | 262 kts | 264° |
| 2026-05-04 10:21 | 51.63660 | 6.19573 | 9563 ft | 261 kts | 264° |
| 2026-05-04 10:22 | 51.63319 | 6.13802 | 8903 ft | 257 kts | 264° |
| 2026-05-04 10:22 | 51.63150 | 6.10937 | 8589 ft | 256 kts | 264° |
| 2026-05-04 10:22 | 51.62982 | 6.08090 | 8257 ft | 255 kts | 264° |
| 2026-05-04 10:23 | 51.62811 | 6.05251 | 7948 ft | 254 kts | 264° |
| 2026-05-04 10:23 | 51.62643 | 6.02468 | 7632 ft | 253 kts | 264° |
| 2026-05-04 10:25 | 51.61445 | 5.83064 | 5403 ft | 244 kts | 263° |
| 2026-05-04 10:25 | 51.61274 | 5.80354 | 5094 ft | 242 kts | 263° |
| 2026-05-04 10:25 | 51.61106 | 5.77692 | 4790 ft | 243 kts | 264° |
| 2026-05-04 10:25 | 51.60935 | 5.74992 | 4470 ft | 242 kts | 263° |
| 2026-05-04 10:26 | 51.60765 | 5.72307 | 4156 ft | 241 kts | 263° |
| 2026-05-04 10:26 | 51.60595 | 5.69637 | 3863 ft | 239 kts | 263° |
| 2026-05-04 10:26 | 51.60428 | 5.67055 | 3818 ft | 224 kts | 263° |
| 2026-05-04 10:26 | 51.60271 | 5.64646 | 3721 ft | 211 kts | 263° |
| 2026-05-04 10:27 | 51.60120 | 5.62324 | 3630 ft | 208 kts | 263° |
| 2026-05-04 10:27 | 51.59970 | 5.60007 | 3543 ft | 208 kts | 263° |
| 2026-05-04 10:27 | 51.59821 | 5.57716 | 3465 ft | 200 kts | 263° |
| 2026-05-04 10:27 | 51.59654 | 5.55631 | 3360 ft | 182 kts | 255° |
| 2026-05-04 10:28 | 51.59170 | 5.53849 | 3212 ft | 168 kts | 234° |
| 2026-05-04 10:28 | 51.58396 | 5.52522 | 3034 ft | 160 kts | 216° |
| 2026-05-04 10:28 | 51.57491 | 5.51498 | 2842 ft | 158 kts | 214° |
| 2026-05-04 10:28 | 51.56599 | 5.50489 | 2636 ft | 156 kts | 214° |
| 2026-05-04 10:29 | 51.55715 | 5.49492 | 2429 ft | 155 kts | 214° |
| 2026-05-04 10:29 | 51.54831 | 5.48495 | 2221 ft | 154 kts | 214° |
| 2026-05-04 10:29 | 51.53992 | 5.47549 | 2053 ft | 145 kts | 214° |
| 2026-05-04 10:29 | 51.53177 | 5.46631 | 1836 ft | 141 kts | 214° |
| 2026-05-04 10:30 | 51.52378 | 5.45730 | 1639 ft | 140 kts | 214° |
| 2026-05-04 10:30 | 51.51579 | 5.44830 | 1442 ft | 140 kts | 215° |
| 2026-05-04 10:30 | 51.50776 | 5.43942 | 1257 ft | 140 kts | 214° |
| 2026-05-04 10:30 | 51.49979 | 5.43051 | 1061 ft | 139 kts | 214° |
| 2026-05-04 10:31 | 51.49193 | 5.42154 | 871 ft | 139 kts | 214° |
| 2026-05-04 10:31 | 51.48410 | 5.41257 | 691 ft | 138 kts | 215° |
| 2026-05-04 10:32 | 51.44746 | 5.37154 | 74 ft | 14 kts | 216° |
| 2026-05-04 10:33 | 51.44747 | 5.37054 | 73 ft | 8 kts | 315° |
| 2026-05-04 10:33 | 51.44792 | 5.36985 | 72 ft | 9 kts | 316° |
| 2026-05-04 10:33 | 51.44851 | 5.36995 | 69 ft | 10 kts | 31° |
| 2026-05-04 10:33 | 51.44914 | 5.37060 | 69 ft | 12 kts | 34° |
| 2026-05-04 10:34 | 51.44986 | 5.37141 | 71 ft | 14 kts | 35° |
| 2026-05-04 10:34 | 51.45091 | 5.37259 | 72 ft | 23 kts | 35° |
| 2026-05-04 10:34 | 51.45230 | 5.37414 | 70 ft | 25 kts | 35° |
| 2026-05-04 10:34 | 51.45377 | 5.37579 | 75 ft | 26 kts | 35° |
| 2026-05-04 10:35 | 51.45531 | 5.37753 | 66 ft | 28 kts | 35° |
| 2026-05-04 10:35 | 51.45693 | 5.37935 | 69 ft | 29 kts | 35° |
| 2026-05-04 10:35 | 51.45848 | 5.38108 | 64 ft | 21 kts | 35° |
| 2026-05-04 10:35 | 51.45962 | 5.38234 | 68 ft | 15 kts | 34° |
| 2026-05-04 10:36 | 51.45981 | 5.38349 | 67 ft | 12 kts | 122° |
| 2026-05-04 10:36 | 51.45932 | 5.38461 | 75 ft | 13 kts | 126° |
| 2026-05-04 10:36 | 51.45875 | 5.38588 | 68 ft | 16 kts | 125° |
| 2026-05-04 10:36 | 51.45810 | 5.38737 | 67 ft | 10 kts | 125° |
| 2026-05-04 10:37 | 51.45803 | 5.38841 | 68 ft | 11 kts | 50° |
| 2026-05-04 10:37 | 51.45806 | 5.38933 | 68 ft | 10 kts | 125° |
| 2026-05-04 10:37 | 51.45787 | 5.38976 | 71 ft | 1 kts | 125° |
| 2026-05-04 10:37 | 51.45787 | 5.38978 | 71 ft | 0 kts | 125° |